Flight Track Log - Related Links

Times and Time Zones

All times are in EDT time to prevent confusion due to time zone crossing. See the GJS3706 flight status page for this flight to view local times or setup timezone preferences in your user account.

Time Position Orientation Groundspeed Altitude Reporting Facility
EDT Latitude Longitude Course Direction KTS MPH feet Rate Location/Type
Mon 09:43:45 AM 41.9667 -87.8667 49° Northeast 170 196 1,500  Level Chicago TRACON
Mon 09:44:46 AM 41.9667 -87.7833 90° East 239 275 3,500 1,686 Climbing Chicago TRACON
Mon 09:45:46 AM 41.9667 -87.6833 90° East 286 329 4,900 1,850 Climbing Chicago TRACON
Mon 09:46:46 AM 41.9833 -87.5833 77° East 297 342 7,200 2,346 Climbing Chicago TRACON
Mon 09:47:59 AM 42.0517 -87.6242 336° Northwest 277 319 10,100 2,222 Climbing Chicago Center
Mon 09:49:00 AM 42.1684 -87.1221 49° Northeast  Level Estimated
Mon 09:49:01 AM 42.0936 -87.7042 305° West 265 305 12,200  Level Chicago Center
Mon 09:50:03 AM 42.1850 -87.7164 354° North 290 334 14,700 2,208 Climbing Chicago Center
Mon 09:51:06 AM 42.2661 -87.7136 North 291 335 16,800 1,776 Climbing Chicago Center
Mon 09:52:08 AM 42.3525 -87.7008 North 308 354 18,400 1,258 Climbing Chicago Center
Mon 09:53:10 AM 42.4461 -87.6875 North 331 381 19,400 968 Climbing Chicago Center
Mon 09:54:12 AM 42.5492 -87.6739 North 362 417 20,400 1,065 Climbing Chicago Center
Mon 09:55:14 AM 42.6769 -87.6564 North 387 445 21,600 1,065 Climbing Chicago Center
Mon 09:56:16 AM 42.7917 -87.6397 North 405 466 22,600 774 Climbing Chicago Center
Mon 09:57:18 AM 42.8856 -87.5394 38° Northeast 437 503 23,200 629 Climbing Chicago Center
Mon 09:58:20 AM 42.9689 -87.4067 49° Northeast 455 524 23,900 672 Climbing Chicago Center
Mon 09:59:23 AM 43.0553 -87.2744 48° Northeast 464 534 24,600 667 Climbing Chicago Center
Mon 10:00:26 AM 43.1408 -87.1381 49° Northeast 471 542 25,300 768 Climbing Chicago Center
Mon 10:01:28 AM 43.2456 -86.9719 49° Northeast 479 551 26,200 823 Climbing Chicago Center
Mon 10:02:30 AM 43.3331 -86.8317 49° Northeast 483 556 27,000 871 Climbing Chicago Center
Mon 10:03:32 AM 43.4194 -86.6928 49° Northeast 478 550 28,000 968 Climbing Chicago Center
Mon 10:04:34 AM 43.5053 -86.5544 49° Northeast 476 548 29,000 1,016 Climbing Chicago Center
Mon 10:05:36 AM 43.5925 -86.4181 49° Northeast 474 545 30,100 1,105 Climbing Chicago Center
Mon 10:06:28 AM 43.6772 -86.2800 50° Northeast 470 541 31,100 1,053 Climbing Minneapolis Center
Mon 10:07:30 AM 43.7631 -86.1419 49° Northeast 471 542 32,100 968 Climbing Minneapolis Center
Mon 10:08:32 AM 43.8461 -86.0044 50° Northeast 469 540 33,100 976 Climbing Minneapolis Center
Mon 10:09:33 AM 43.9269 -85.8681 51° Northeast 464 534 34,100 976 Climbing Minneapolis Center
Mon 10:10:35 AM 44.0056 -85.7328 51° Northeast 458 527 35,100 919 Climbing Minneapolis Center
Mon 10:11:37 AM 44.0817 -85.6014 51° Northeast 449 517 36,000 919 Climbing Minneapolis Center
Mon 10:12:39 AM 44.1394 -85.4139 67° East 447 514 37,000 484 Climbing Minneapolis Center
Mon 10:13:41 AM 44.1547 -85.2381 83° East 460 529 37,000  Level Minneapolis Center
Mon 10:14:43 AM 44.1678 -85.0561 84° East 471 542 37,000  Level Minneapolis Center
Mon 10:15:45 AM 44.1822 -84.8697 84° East 481 554 37,000  Level Minneapolis Center
Mon 10:16:46 AM 44.1958 -84.6806 84° East 490 564 37,000  Level Minneapolis Center
Mon 10:17:48 AM 44.2078 -84.4903 85° East 495 570 37,000  Level Minneapolis Center
Mon 10:18:50 AM 44.2233 -84.2603 85° East 499 574 37,000  Level Minneapolis Center
Mon 10:19:52 AM 44.2347 -84.0697 85° East 497 572 37,000  Level Minneapolis Center
Mon 10:20:54 AM 44.2469 -83.8772 85° East 499 574 37,000  Level Minneapolis Center
Mon 10:21:56 AM 44.2617 -83.6864 84° East 496 571 37,000  Level Minneapolis Center
Mon 10:22:58 AM 44.2747 -83.4922 85° East 501 577 37,000  Level Minneapolis Center
Mon 10:24:00 AM 44.2847 -83.2992 86° East 502 578 37,000  Level Minneapolis Center
Mon 10:25:02 AM 44.2992 -83.0639 85° East 507 583 37,000  Level Minneapolis Center
Mon 10:26:04 AM 44.3097 -82.8675 86° East 509 586 37,000  Level Minneapolis Center
Mon 10:26:38 AM 44.3000 -82.7500 97° East 510 587 37,000  Level Toronto Center
Mon 10:27:38 AM 44.3167 -82.5500 83° East 510 587 37,000  Level Toronto Center
Mon 10:28:38 AM 44.3167 -82.3667 90° East 510 587 37,000  Level Toronto Center
Mon 10:29:38 AM 44.3167 -82.1500 90° East 510 587 37,000  Level Toronto Center
Mon 10:30:38 AM 44.3333 -81.9667 83° East 510 587 37,000  Level Toronto Center
Mon 10:31:38 AM 44.3500 -81.7500 84° East 510 587 37,000  Level Toronto Center
Mon 10:32:38 AM 44.3500 -81.5667 90° East 510 587 37,000  Level Toronto Center
Mon 10:33:38 AM 44.3500 -81.3500 90° East 510 587 37,000  Level Toronto Center
Mon 10:34:38 AM 44.3667 -81.1667 83° East 520 598 37,000  Level Toronto Center
Mon 10:35:38 AM 44.3667 -80.9667 90° East 510 587 37,000  Level Toronto Center
Mon 10:36:38 AM 44.3833 -80.7833 83° East 510 587 37,000  Level Toronto Center
Mon 10:37:38 AM 44.3833 -80.5667 90° East 510 587 37,000  Level Toronto Center
Mon 10:38:38 AM 44.4000 -80.3500 84° East 510 587 37,000  Level Toronto Center
Mon 10:39:38 AM 44.4000 -80.1667 90° East 510 587 37,000  Level Toronto Center
Mon 10:40:38 AM 44.4000 -79.9667 90° East 510 587 37,000  Level Toronto Center
Mon 10:41:38 AM 44.4000 -79.7667 90° East 510 587 37,000  Level Toronto Center
Mon 10:42:38 AM 44.3833 -79.5667 97° East 520 598 37,000  Level Toronto Center
Mon 10:43:38 AM 44.3667 -79.3833 97° East 520 598 37,000  Level Toronto Center
Mon 10:44:38 AM 44.3833 -79.1667 84° East 510 587 37,000  Level Toronto Center
Mon 10:45:38 AM 44.3833 -78.9833 90° East 510 587 37,000  Level Toronto Center
Mon 10:46:38 AM 44.4000 -78.7667 84° East 510 587 37,000  Level Toronto Center
Mon 10:47:38 AM 44.4000 -78.5833 90° East 510 587 37,000  Level Toronto Center
Mon 10:48:38 AM 44.4000 -78.3667 90° East 510 587 37,000  Level Toronto Center
Mon 10:49:38 AM 44.4000 -78.1833 90° East 510 587 37,000  Level Toronto Center
Mon 10:50:38 AM 44.4167 -77.9833 83° East 510 587 37,000  Level Toronto Center
Mon 10:51:38 AM 44.4167 -77.7833 90° East 510 587 37,000  Level Toronto Center
Mon 10:52:38 AM 44.4333 -77.5833 83° East 510 587 37,000  Level Toronto Center
Mon 10:53:38 AM 44.4333 -77.3833 90° East 510 587 37,000  Level Toronto Center
Mon 10:54:38 AM 44.4333 -77.1833 90° East 510 587 37,000  Level Toronto Center
Mon 10:55:38 AM 44.4333 -77.0000 90° East 510 587 37,000  Level Toronto Center
Mon 10:56:38 AM 44.4500 -76.7833 84° East 510 587 37,000  Level Toronto Center
Mon 10:57:38 AM 44.4333 -76.6000 97° East 510 587 37,000  Level Toronto Center
Mon 10:58:38 AM 44.4500 -76.3833 84° East 510 587 37,000  Level Toronto Center
Mon 10:59:38 AM 44.4667 -76.2000 83° East 510 587 37,000  Level Toronto Center
Mon 11:00:38 AM 44.4500 -76.0167 97° East 510 587 37,000 -550 Level Toronto Center
Mon 11:01:38 AM 44.4667 -75.8000 84° East 510 587 35,900 -1,550 Descending Toronto Center
Mon 11:02:38 AM 44.4667 -75.6167 90° East 500 575 33,900 -2,000 Descending Toronto Center
Mon 11:03:38 AM 44.4667 -75.4000 90° East 500 575 31,900 -2,150 Descending Toronto Center
Mon 11:04:38 AM 44.4667 -75.2167 90° East 490 564 29,600 -2,450 Descending Toronto Center
Mon 11:05:38 AM 44.4667 -75.0333 90° East 490 564 27,000 -2,500 Descending Toronto Center
Mon 11:06:38 AM 44.4667 -74.8500 90° East 480 552 24,600 -2,500 Descending Toronto Center
Mon 11:07:38 AM 44.4667 -74.6500 90° East 460 529 22,000 -2,300 Descending Toronto Center
Mon 11:08:38 AM 44.4667 -74.4833 90° East 440 506 20,000 -2,000 Descending Toronto Center
Mon 11:09:38 AM 44.4667 -74.3000 90° East 450 518 18,000 -1,550 Descending Toronto Center
Mon 11:10:38 AM 44.4667 -74.1333 90° East 440 506 16,900 -1,551 Descending Toronto Center
Mon 11:12:05 AM 44.4803 -73.9764 83° East 419 482 14,200 -1,918 Descending Boston Center
Mon 11:13:05 AM 44.4864 -73.8308 87° East 386 444 12,200 -1,780 Descending Boston Center
Mon 11:14:03 AM 44.5044 -73.6917 80° East 351 404 10,700 -1,983 Descending Boston Center
Mon 11:15:03 AM 44.5244 -73.5786 76° East 314 361 8,300 -2,479 Descending Boston Center
Mon 11:16:04 AM 44.5400 -73.4681 79° East 294 338 5,700 -2,281 Descending Boston Center
Mon 11:17:04 AM 44.5533 -73.3694 79° East 294 338 3,700 -1,736 Descending Boston Center
Mon 11:18:05 AM 44.5458 -73.2703 96° East 264 304 2,200 -1,190 Descending Boston Center
Mon 11:19:05 AM 44.5169 -73.2261 133° Southeast 178 205 1,300 -763 Descending Boston Center
Mon 11:20:03 AM 44.4922 -73.1881 132° Southeast 139 160 700 -504 Descending Boston Center
Mon 11:21:04 AM 44.4717 -73.1528 129° Southeast 122 140 300 -198 Descending Boston Center
Mon 11:22:04 AM 44.4694 -73.1558 224° Southwest 46 53 300  Level Boston Center
Mon 11:23:05 AM 44.4550 -73.1408 143° Southeast 39 45 300 5,306 Level Boston Center
Mon 11:24:05 AM 44.4447 -73.1350 158° South 39 45 11,000 5,350 Climbing Boston Center
Mon 11:25:05 AM 44.4342 -73.1261 149° Southeast 39 45 11,000  Level Boston Center
Mon 11:26:03 AM 44.4239 -73.1203 158° South 39 45 11,000  Level Boston Center

Login

Don't have an account? Register now (free) for customized features, flight alerts, and more!